Terminal Aerodrome Forecast
Issued by NWS Sioux Falls, SD

Home | Current Version | Previous Version | Graphics & Text | Print | Product List | Glossary On
Versions: 1 2 3 4 5 6 7 8 9 10 11 12
749
FTUS43 KFSD 071727
TAFFSD
TAF
KFSD 071727Z 0718/0818 30020G28KT P6SM -SN BKN045
     FM080000 30015G23KT P6SM SCT050
     FM081600 31018G25KT P6SM BKN050=

USA.gov is the U.S. government's official web portal to all federal, state and local government web resources and services.